sensor_id;sensor_type;location;lat;lon;timestamp;temperature;humidity
6054;DHT22;3055;50.886;14.814;2023-02-15T00:01:31;2.40;99.90
6054;DHT22;3055;50.886;14.814;2023-02-15T00:03:58;2.40;99.90
6054;DHT22;3055;50.886;14.814;2023-02-15T00:06:26;2.40;99.90
6054;DHT22;3055;50.886;14.814;2023-02-15T00:08:54;2.40;99.90
6054;DHT22;3055;50.886;14.814;2023-02-15T00:11:21;2.40;99.90
6054;DHT22;3055;50.886;14.814;2023-02-15T00:14:02;2.40;99.90
6054;DHT22;3055;50.886;14.814;2023-02-15T00:16:29;2.40;99.90
6054;DHT22;3055;50.886;14.814;2023-02-15T00:18:57;2.40;99.90
6054;DHT22;3055;50.886;14.814;2023-02-15T00:21:29;2.40;99.90
6054;DHT22;3055;50.886;14.814;2023-02-15T00:23:57;2.40;99.90
6054;DHT22;3055;50.886;14.814;2023-02-15T00:26:24;2.40;99.90
6054;DHT22;3055;50.886;14.814;2023-02-15T00:28:52;2.40;99.90
6054;DHT22;3055;50.886;14.814;2023-02-15T00:31:19;2.40;99.90
6054;DHT22;3055;50.886;14.814;2023-02-15T00:33:46;2.40;99.90
6054;DHT22;3055;50.886;14.814;2023-02-15T00:36:14;2.40;99.90
6054;DHT22;3055;50.886;14.814;2023-02-15T00:38:42;2.40;99.90
6054;DHT22;3055;50.886;14.814;2023-02-15T00:41:10;2.30;99.90
6054;DHT22;3055;50.886;14.814;2023-02-15T00:43:37;2.30;99.90
6054;DHT22;3055;50.886;14.814;2023-02-15T00:46:05;2.40;99.90
6054;DHT22;3055;50.886;14.814;2023-02-15T00:48:32;2.40;99.90
6054;DHT22;3055;50.886;14.814;2023-02-15T00:51:00;2.30;99.90
6054;DHT22;3055;50.886;14.814;2023-02-15T00:53:28;2.30;99.90
6054;DHT22;3055;50.886;14.814;2023-02-15T00:55:57;2.30;99.90
6054;DHT22;3055;50.886;14.814;2023-02-15T00:58:24;2.30;99.90
6054;DHT22;3055;50.886;14.814;2023-02-15T01:00:52;2.30;99.90
6054;DHT22;3055;50.886;14.814;2023-02-15T01:03:20;2.20;99.90
6054;DHT22;3055;50.886;14.814;2023-02-15T01:05:48;2.20;99.90
6054;DHT22;3055;50.886;14.814;2023-02-15T01:08:16;2.10;99.90
6054;DHT22;3055;50.886;14.814;2023-02-15T01:10:43;2.20;99.90
6054;DHT22;3055;50.886;14.814;2023-02-15T01:13:14;2.10;99.90
6054;DHT22;3055;50.886;14.814;2023-02-15T01:15:42;2.10;99.90
6054;DHT22;3055;50.886;14.814;2023-02-15T01:18:09;2.10;99.90
6054;DHT22;3055;50.886;14.814;2023-02-15T01:20:38;2.10;99.90
6054;DHT22;3055;50.886;14.814;2023-02-15T01:23:07;2.10;99.90
6054;DHT22;3055;50.886;14.814;2023-02-15T01:25:35;2.10;99.90
6054;DHT22;3055;50.886;14.814;2023-02-15T01:28:03;2.10;99.90
6054;DHT22;3055;50.886;14.814;2023-02-15T01:30:32;2.10;99.90
6054;DHT22;3055;50.886;14.814;2023-02-15T01:32:59;2.10;99.90
6054;DHT22;3055;50.886;14.814;2023-02-15T01:35:27;2.10;99.90
6054;DHT22;3055;50.886;14.814;2023-02-15T01:37:55;2.10;99.90
6054;DHT22;3055;50.886;14.814;2023-02-15T01:40:22;2.10;99.90
6054;DHT22;3055;50.886;14.814;2023-02-15T01:42:50;2.10;99.90
6054;DHT22;3055;50.886;14.814;2023-02-15T01:45:20;2.10;99.90
6054;DHT22;3055;50.886;14.814;2023-02-15T01:47:52;2.10;99.90
6054;DHT22;3055;50.886;14.814;2023-02-15T01:50:23;2.10;99.90
6054;DHT22;3055;50.886;14.814;2023-02-15T01:52:57;2.10;99.90
6054;DHT22;3055;50.886;14.814;2023-02-15T01:55:29;2.00;99.90
6054;DHT22;3055;50.886;14.814;2023-02-15T01:57:57;2.00;99.90
6054;DHT22;3055;50.886;14.814;2023-02-15T02:00:24;2.00;99.90
6054;DHT22;3055;50.886;14.814;2023-02-15T02:02:54;2.00;99.90
6054;DHT22;3055;50.886;14.814;2023-02-15T02:05:22;2.00;99.90
6054;DHT22;3055;50.886;14.814;2023-02-15T02:07:51;2.00;99.90
6054;DHT22;3055;50.886;14.814;2023-02-15T02:10:20;2.00;99.90
6054;DHT22;3055;50.886;14.814;2023-02-15T02:12:50;2.00;99.90
6054;DHT22;3055;50.886;14.814;2023-02-15T02:15:18;2.00;99.90
6054;DHT22;3055;50.886;14.814;2023-02-15T02:17:58;2.00;99.90
6054;DHT22;3055;50.886;14.814;2023-02-15T02:23:54;2.00;99.90
6054;DHT22;3055;50.886;14.814;2023-02-15T02:30:09;1.90;99.90
6054;DHT22;3055;50.886;14.814;2023-02-15T02:33:07;1.90;99.90
6054;DHT22;3055;50.886;14.814;2023-02-15T02:35:40;1.90;99.90
6054;DHT22;3055;50.886;14.814;2023-02-15T02:38:14;1.90;99.90
6054;DHT22;3055;50.886;14.814;2023-02-15T02:40:53;1.90;99.90
6054;DHT22;3055;50.886;14.814;2023-02-15T02:43:27;1.90;99.90
6054;DHT22;3055;50.886;14.814;2023-02-15T02:45:58;1.90;99.90
6054;DHT22;3055;50.886;14.814;2023-02-15T02:48:31;1.90;99.90
6054;DHT22;3055;50.886;14.814;2023-02-15T02:50:59;2.00;99.90
6054;DHT22;3055;50.886;14.814;2023-02-15T02:53:28;2.00;99.90
6054;DHT22;3055;50.886;14.814;2023-02-15T02:55:59;2.00;99.90
6054;DHT22;3055;50.886;14.814;2023-02-15T02:58:33;2.00;99.90
6054;DHT22;3055;50.886;14.814;2023-02-15T03:01:05;2.00;99.90
6054;DHT22;3055;50.886;14.814;2023-02-15T03:03:37;2.00;99.90
6054;DHT22;3055;50.886;14.814;2023-02-15T03:06:10;2.00;99.90
6054;DHT22;3055;50.886;14.814;2023-02-15T03:08:42;2.00;99.90
6054;DHT22;3055;50.886;14.814;2023-02-15T03:11:11;2.00;99.90
6054;DHT22;3055;50.886;14.814;2023-02-15T03:13:39;2.00;99.90
6054;DHT22;3055;50.886;14.814;2023-02-15T03:16:08;1.90;99.90
6054;DHT22;3055;50.886;14.814;2023-02-15T03:19:00;2.00;99.90
6054;DHT22;3055;50.886;14.814;2023-02-15T03:21:34;1.90;99.90
6054;DHT22;3055;50.886;14.814;2023-02-15T03:24:07;1.90;99.90
6054;DHT22;3055;50.886;14.814;2023-02-15T03:26:36;1.90;99.90
6054;DHT22;3055;50.886;14.814;2023-02-15T03:29:05;1.90;99.90
6054;DHT22;3055;50.886;14.814;2023-02-15T03:31:36;1.90;99.90
6054;DHT22;3055;50.886;14.814;2023-02-15T03:34:09;1.90;99.90
6054;DHT22;3055;50.886;14.814;2023-02-15T03:36:43;1.90;99.90
6054;DHT22;3055;50.886;14.814;2023-02-15T03:39:18;1.90;99.90
6054;DHT22;3055;50.886;14.814;2023-02-15T03:41:52;1.90;99.90
6054;DHT22;3055;50.886;14.814;2023-02-15T03:44:26;1.90;99.90
6054;DHT22;3055;50.886;14.814;2023-02-15T03:46:58;1.80;99.90
6054;DHT22;3055;50.886;14.814;2023-02-15T03:49:34;1.90;99.90
6054;DHT22;3055;50.886;14.814;2023-02-15T03:52:05;1.90;99.90
6054;DHT22;3055;50.886;14.814;2023-02-15T03:54:34;1.80;99.90
6054;DHT22;3055;50.886;14.814;2023-02-15T03:57:19;1.80;99.90
6054;DHT22;3055;50.886;14.814;2023-02-15T04:00:08;1.80;99.90
6054;DHT22;3055;50.886;14.814;2023-02-15T04:03:11;1.80;99.90
6054;DHT22;3055;50.886;14.814;2023-02-15T04:05:42;1.80;99.90
6054;DHT22;3055;50.886;14.814;2023-02-15T04:08:09;1.80;99.90
6054;DHT22;3055;50.886;14.814;2023-02-15T04:10:37;1.70;99.90
6054;DHT22;3055;50.886;14.814;2023-02-15T04:13:22;1.70;99.90
6054;DHT22;3055;50.886;14.814;2023-02-15T04:15:49;1.70;99.90
6054;DHT22;3055;50.886;14.814;2023-02-15T04:18:31;1.70;99.90
6054;DHT22;3055;50.886;14.814;2023-02-15T04:21:17;1.70;99.90
6054;DHT22;3055;50.886;14.814;2023-02-15T04:24:02;1.70;99.90
6054;DHT22;3055;50.886;14.814;2023-02-15T04:26:46;1.70;99.90
6054;DHT22;3055;50.886;14.814;2023-02-15T04:29:14;1.60;99.90
6054;DHT22;3055;50.886;14.814;2023-02-15T04:31:41;1.70;99.90
6054;DHT22;3055;50.886;14.814;2023-02-15T04:34:09;1.70;99.90
6054;DHT22;3055;50.886;14.814;2023-02-15T04:36:39;1.70;99.90
6054;DHT22;3055;50.886;14.814;2023-02-15T04:39:06;1.70;99.90
6054;DHT22;3055;50.886;14.814;2023-02-15T04:41:34;1.70;99.90
6054;DHT22;3055;50.886;14.814;2023-02-15T04:44:02;1.70;99.90
6054;DHT22;3055;50.886;14.814;2023-02-15T04:46:29;1.70;99.90
6054;DHT22;3055;50.886;14.814;2023-02-15T04:48:57;1.70;99.90
6054;DHT22;3055;50.886;14.814;2023-02-15T04:51:24;1.70;99.90
6054;DHT22;3055;50.886;14.814;2023-02-15T04:53:52;1.70;99.90
6054;DHT22;3055;50.886;14.814;2023-02-15T04:56:20;1.70;99.90
6054;DHT22;3055;50.886;14.814;2023-02-15T04:58:47;1.70;99.90
6054;DHT22;3055;50.886;14.814;2023-02-15T05:01:14;1.70;99.90
6054;DHT22;3055;50.886;14.814;2023-02-15T05:03:42;1.60;99.90
6054;DHT22;3055;50.886;14.814;2023-02-15T05:06:09;1.60;99.90
6054;DHT22;3055;50.886;14.814;2023-02-15T05:08:36;1.60;99.90
6054;DHT22;3055;50.886;14.814;2023-02-15T05:11:04;1.60;99.90
6054;DHT22;3055;50.886;14.814;2023-02-15T05:13:31;1.60;99.90
6054;DHT22;3055;50.886;14.814;2023-02-15T05:15:58;1.50;99.90
6054;DHT22;3055;50.886;14.814;2023-02-15T05:18:25;1.50;99.90
6054;DHT22;3055;50.886;14.814;2023-02-15T05:20:52;1.50;99.90
6054;DHT22;3055;50.886;14.814;2023-02-15T05:23:19;1.50;99.90
6054;DHT22;3055;50.886;14.814;2023-02-15T05:25:47;1.50;99.90
6054;DHT22;3055;50.886;14.814;2023-02-15T05:28:34;1.50;99.90
6054;DHT22;3055;50.886;14.814;2023-02-15T05:31:07;1.40;99.90
6054;DHT22;3055;50.886;14.814;2023-02-15T05:33:35;1.40;99.90
6054;DHT22;3055;50.886;14.814;2023-02-15T05:36:03;1.40;99.90
6054;DHT22;3055;50.886;14.814;2023-02-15T05:38:30;1.40;99.90
6054;DHT22;3055;50.886;14.814;2023-02-15T05:40:58;1.40;99.90
6054;DHT22;3055;50.886;14.814;2023-02-15T05:43:25;1.40;99.90
6054;DHT22;3055;50.886;14.814;2023-02-15T05:45:56;1.40;99.90
6054;DHT22;3055;50.886;14.814;2023-02-15T05:48:25;1.30;99.90
6054;DHT22;3055;50.886;14.814;2023-02-15T05:50:59;1.40;99.90
6054;DHT22;3055;50.886;14.814;2023-02-15T05:53:26;1.40;99.90
6054;DHT22;3055;50.886;14.814;2023-02-15T05:55:53;1.30;99.90
6054;DHT22;3055;50.886;14.814;2023-02-15T05:58:24;1.30;99.90
6054;DHT22;3055;50.886;14.814;2023-02-15T06:00:51;1.30;99.90
6054;DHT22;3055;50.886;14.814;2023-02-15T06:03:20;1.30;99.90
6054;DHT22;3055;50.886;14.814;2023-02-15T06:05:47;1.30;99.90
6054;DHT22;3055;50.886;14.814;2023-02-15T06:08:15;1.30;99.90
6054;DHT22;3055;50.886;14.814;2023-02-15T06:10:42;1.30;99.90
6054;DHT22;3055;50.886;14.814;2023-02-15T06:13:09;1.30;99.90
6054;DHT22;3055;50.886;14.814;2023-02-15T06:15:36;1.30;99.90
6054;DHT22;3055;50.886;14.814;2023-02-15T06:18:03;1.30;99.90
6054;DHT22;3055;50.886;14.814;2023-02-15T06:20:32;1.30;99.90
6054;DHT22;3055;50.886;14.814;2023-02-15T06:22:59;1.30;99.90
6054;DHT22;3055;50.886;14.814;2023-02-15T06:25:26;1.30;99.90
6054;DHT22;3055;50.886;14.814;2023-02-15T06:27:53;1.40;99.90
6054;DHT22;3055;50.886;14.814;2023-02-15T06:30:20;1.40;99.90
6054;DHT22;3055;50.886;14.814;2023-02-15T06:32:47;1.40;99.90
6054;DHT22;3055;50.886;14.814;2023-02-15T06:35:14;1.40;99.90
6054;DHT22;3055;50.886;14.814;2023-02-15T06:37:45;1.40;99.90
6054;DHT22;3055;50.886;14.814;2023-02-15T06:40:13;1.40;99.90
6054;DHT22;3055;50.886;14.814;2023-02-15T06:42:41;1.40;99.90
6054;DHT22;3055;50.886;14.814;2023-02-15T06:45:09;1.40;99.90
6054;DHT22;3055;50.886;14.814;2023-02-15T06:47:36;1.40;99.90
6054;DHT22;3055;50.886;14.814;2023-02-15T06:50:04;1.50;99.90
6054;DHT22;3055;50.886;14.814;2023-02-15T06:52:32;1.50;99.90
6054;DHT22;3055;50.886;14.814;2023-02-15T06:55:00;1.50;99.90
6054;DHT22;3055;50.886;14.814;2023-02-15T06:57:27;1.50;99.90
6054;DHT22;3055;50.886;14.814;2023-02-15T06:59:54;1.60;99.90
6054;DHT22;3055;50.886;14.814;2023-02-15T07:02:23;1.60;99.90
6054;DHT22;3055;50.886;14.814;2023-02-15T07:04:50;1.60;99.90
6054;DHT22;3055;50.886;14.814;2023-02-15T07:07:18;1.60;99.90
6054;DHT22;3055;50.886;14.814;2023-02-15T07:09:45;1.60;99.90
6054;DHT22;3055;50.886;14.814;2023-02-15T07:12:13;1.60;99.90
6054;DHT22;3055;50.886;14.814;2023-02-15T07:14:58;1.70;99.90
6054;DHT22;3055;50.886;14.814;2023-02-15T07:17:25;1.70;99.90
6054;DHT22;3055;50.886;14.814;2023-02-15T07:19:54;1.70;99.90
6054;DHT22;3055;50.886;14.814;2023-02-15T07:22:21;1.80;99.90
6054;DHT22;3055;50.886;14.814;2023-02-15T07:24:48;1.80;99.90
6054;DHT22;3055;50.886;14.814;2023-02-15T07:27:16;1.90;99.00
6054;DHT22;3055;50.886;14.814;2023-02-15T07:29:43;1.90;90.90
6054;DHT22;3055;50.886;14.814;2023-02-15T07:32:10;2.00;74.20
6054;DHT22;3055;50.886;14.814;2023-02-15T07:34:37;2.00;54.00
6054;DHT22;3055;50.886;14.814;2023-02-15T07:37:04;2.10;40.40
6054;DHT22;3055;50.886;14.814;2023-02-15T07:39:31;2.10;24.70
6054;DHT22;3055;50.886;14.814;2023-02-15T07:41:59;2.10;8.80
6054;DHT22;3055;50.886;14.814;2023-02-15T07:44:28;2.20;5.20
6054;DHT22;3055;50.886;14.814;2023-02-15T07:46:55;2.20;1.00
6054;DHT22;3055;50.886;14.814;2023-02-15T07:49:24;2.30;1.00
6054;DHT22;3055;50.886;14.814;2023-02-15T07:51:51;2.30;1.00
6054;DHT22;3055;50.886;14.814;2023-02-15T07:54:18;2.30;1.00
6054;DHT22;3055;50.886;14.814;2023-02-15T07:56:45;2.40;1.00
6054;DHT22;3055;50.886;14.814;2023-02-15T07:59:12;2.40;1.00
6054;DHT22;3055;50.886;14.814;2023-02-15T08:01:41;2.40;1.00
6054;DHT22;3055;50.886;14.814;2023-02-15T08:04:08;2.40;1.00
6054;DHT22;3055;50.886;14.814;2023-02-15T08:06:37;2.50;1.00
6054;DHT22;3055;50.886;14.814;2023-02-15T08:09:06;2.50;1.00
6054;DHT22;3055;50.886;14.814;2023-02-15T08:11:35;2.50;1.00
6054;DHT22;3055;50.886;14.814;2023-02-15T08:14:07;2.60;1.00
6054;DHT22;3055;50.886;14.814;2023-02-15T08:16:37;2.60;1.00
6054;DHT22;3055;50.886;14.814;2023-02-15T08:19:07;2.60;1.00
6054;DHT22;3055;50.886;14.814;2023-02-15T08:21:36;2.60;1.00
6054;DHT22;3055;50.886;14.814;2023-02-15T08:24:04;2.60;1.00
6054;DHT22;3055;50.886;14.814;2023-02-15T08:26:32;2.70;1.00
6054;DHT22;3055;50.886;14.814;2023-02-15T08:28:59;2.70;99.90
6054;DHT22;3055;50.886;14.814;2023-02-15T08:31:27;2.80;99.90
6054;DHT22;3055;50.886;14.814;2023-02-15T08:33:55;2.80;99.90
6054;DHT22;3055;50.886;14.814;2023-02-15T08:36:26;2.90;99.90
6054;DHT22;3055;50.886;14.814;2023-02-15T08:38:54;2.90;99.90
6054;DHT22;3055;50.886;14.814;2023-02-15T08:41:22;2.90;1.00
6054;DHT22;3055;50.886;14.814;2023-02-15T08:43:51;2.90;1.00
6054;DHT22;3055;50.886;14.814;2023-02-15T08:46:20;2.90;1.00
6054;DHT22;3055;50.886;14.814;2023-02-15T08:48:48;2.90;1.00
6054;DHT22;3055;50.886;14.814;2023-02-15T08:51:17;2.90;99.90
6054;DHT22;3055;50.886;14.814;2023-02-15T08:53:47;2.90;99.90
6054;DHT22;3055;50.886;14.814;2023-02-15T08:56:16;2.90;99.90
6054;DHT22;3055;50.886;14.814;2023-02-15T08:58:44;2.90;99.90
6054;DHT22;3055;50.886;14.814;2023-02-15T09:01:13;3.00;99.90
6054;DHT22;3055;50.886;14.814;2023-02-15T09:03:44;3.00;81.00
6054;DHT22;3055;50.886;14.814;2023-02-15T09:06:11;3.00;1.00
6054;DHT22;3055;50.886;14.814;2023-02-15T09:08:39;3.00;1.00
6054;DHT22;3055;50.886;14.814;2023-02-15T09:11:09;3.10;99.90
6054;DHT22;3055;50.886;14.814;2023-02-15T09:13:37;3.10;99.90
6054;DHT22;3055;50.886;14.814;2023-02-15T09:16:06;3.10;99.90
6054;DHT22;3055;50.886;14.814;2023-02-15T09:18:36;3.20;1.00
6054;DHT22;3055;50.886;14.814;2023-02-15T09:21:05;3.30;1.00
6054;DHT22;3055;50.886;14.814;2023-02-15T09:23:32;3.30;99.90
6054;DHT22;3055;50.886;14.814;2023-02-15T09:26:03;3.30;1.00
6054;DHT22;3055;50.886;14.814;2023-02-15T09:28:32;3.30;1.00
6054;DHT22;3055;50.886;14.814;2023-02-15T09:31:08;3.30;1.00
6054;DHT22;3055;50.886;14.814;2023-02-15T09:33:36;3.30;99.90
6054;DHT22;3055;50.886;14.814;2023-02-15T09:36:05;3.20;1.00
6054;DHT22;3055;50.886;14.814;2023-02-15T09:38:32;3.20;1.00
6054;DHT22;3055;50.886;14.814;2023-02-15T09:41:14;3.20;99.90
6054;DHT22;3055;50.886;14.814;2023-02-15T09:43:54;3.20;1.00
6054;DHT22;3055;50.886;14.814;2023-02-15T09:46:38;3.30;99.90
6054;DHT22;3055;50.886;14.814;2023-02-15T09:49:17;3.30;99.90
6054;DHT22;3055;50.886;14.814;2023-02-15T09:52:04;3.30;1.00
6054;DHT22;3055;50.886;14.814;2023-02-15T09:54:55;3.30;99.90
6054;DHT22;3055;50.886;14.814;2023-02-15T09:57:29;3.30;99.90
6054;DHT22;3055;50.886;14.814;2023-02-15T10:00:06;3.40;99.90
6054;DHT22;3055;50.886;14.814;2023-02-15T10:02:50;3.40;1.00
6054;DHT22;3055;50.886;14.814;2023-02-15T10:05:30;3.40;1.00
6054;DHT22;3055;50.886;14.814;2023-02-15T10:11:03;3.40;99.90
6054;DHT22;3055;50.886;14.814;2023-02-15T10:13:55;3.30;1.00
6054;DHT22;3055;50.886;14.814;2023-02-15T10:16:33;3.30;1.00
6054;DHT22;3055;50.886;14.814;2023-02-15T10:19:10;3.30;51.50
6054;DHT22;3055;50.886;14.814;2023-02-15T10:21:50;3.30;1.00
6054;DHT22;3055;50.886;14.814;2023-02-15T10:24:51;3.40;1.00
6054;DHT22;3055;50.886;14.814;2023-02-15T10:27:22;3.40;1.00
6054;DHT22;3055;50.886;14.814;2023-02-15T10:29:59;3.50;99.90
6054;DHT22;3055;50.886;14.814;2023-02-15T10:32:32;3.40;99.90
6054;DHT22;3055;50.886;14.814;2023-02-15T10:35:10;3.50;99.90
6054;DHT22;3055;50.886;14.814;2023-02-15T10:37:47;3.60;1.00
6054;DHT22;3055;50.886;14.814;2023-02-15T10:40:25;3.60;32.40
6054;DHT22;3055;50.886;14.814;2023-02-15T10:43:14;3.70;1.00
6054;DHT22;3055;50.886;14.814;2023-02-15T10:45:52;3.70;1.00
6054;DHT22;3055;50.886;14.814;2023-02-15T10:48:31;3.80;1.00
6054;DHT22;3055;50.886;14.814;2023-02-15T10:51:03;3.80;99.90
6054;DHT22;3055;50.886;14.814;2023-02-15T10:53:54;3.90;1.00
6054;DHT22;3055;50.886;14.814;2023-02-15T10:56:25;3.90;99.90
6054;DHT22;3055;50.886;14.814;2023-02-15T11:01:48;4.00;99.90
6054;DHT22;3055;50.886;14.814;2023-02-15T11:04:36;4.00;99.90
6054;DHT22;3055;50.886;14.814;2023-02-15T11:07:08;4.00;99.90
6054;DHT22;3055;50.886;14.814;2023-02-15T11:09:42;4.00;99.90
6054;DHT22;3055;50.886;14.814;2023-02-15T11:12:13;4.10;99.90
6054;DHT22;3055;50.886;14.814;2023-02-15T11:14:44;4.20;99.90
6054;DHT22;3055;50.886;14.814;2023-02-15T11:17:17;4.20;99.90
6054;DHT22;3055;50.886;14.814;2023-02-15T11:19:54;4.20;1.00
6054;DHT22;3055;50.886;14.814;2023-02-15T11:22:22;4.10;1.00
6054;DHT22;3055;50.886;14.814;2023-02-15T11:24:49;4.00;1.00
6054;DHT22;3055;50.886;14.814;2023-02-15T11:27:19;4.10;1.00
6054;DHT22;3055;50.886;14.814;2023-02-15T11:29:55;4.10;1.00
6054;DHT22;3055;50.886;14.814;2023-02-15T11:32:26;4.10;1.00
6054;DHT22;3055;50.886;14.814;2023-02-15T11:34:59;4.20;1.00
6054;DHT22;3055;50.886;14.814;2023-02-15T11:37:32;4.20;1.00
6054;DHT22;3055;50.886;14.814;2023-02-15T11:40:06;4.20;1.00
6054;DHT22;3055;50.886;14.814;2023-02-15T11:42:41;4.20;1.00
6054;DHT22;3055;50.886;14.814;2023-02-15T11:45:21;4.30;1.00
6054;DHT22;3055;50.886;14.814;2023-02-15T11:47:49;4.40;1.00
6054;DHT22;3055;50.886;14.814;2023-02-15T11:50:20;4.40;99.90
6054;DHT22;3055;50.886;14.814;2023-02-15T11:52:49;4.40;1.00
6054;DHT22;3055;50.886;14.814;2023-02-15T11:55:20;4.50;99.90
6054;DHT22;3055;50.886;14.814;2023-02-15T11:57:52;4.40;99.90
6054;DHT22;3055;50.886;14.814;2023-02-15T12:00:29;4.40;99.90
6054;DHT22;3055;50.886;14.814;2023-02-15T12:03:04;4.30;99.90
6054;DHT22;3055;50.886;14.814;2023-02-15T12:05:37;4.20;99.90
6054;DHT22;3055;50.886;14.814;2023-02-15T12:08:13;4.20;99.90
6054;DHT22;3055;50.886;14.814;2023-02-15T12:10:58;4.30;99.90
6054;DHT22;3055;50.886;14.814;2023-02-15T12:13:27;4.30;99.90
6054;DHT22;3055;50.886;14.814;2023-02-15T12:15:57;4.30;99.90
6054;DHT22;3055;50.886;14.814;2023-02-15T12:18:34;4.30;99.90
6054;DHT22;3055;50.886;14.814;2023-02-15T12:21:07;4.20;99.90
6054;DHT22;3055;50.886;14.814;2023-02-15T12:23:43;4.10;99.90
6054;DHT22;3055;50.886;14.814;2023-02-15T12:26:13;4.10;99.90
6054;DHT22;3055;50.886;14.814;2023-02-15T12:28:41;4.10;99.90
6054;DHT22;3055;50.886;14.814;2023-02-15T12:31:20;4.10;1.00
6054;DHT22;3055;50.886;14.814;2023-02-15T12:33:47;4.30;99.90
6054;DHT22;3055;50.886;14.814;2023-02-15T12:36:20;4.40;99.90
6054;DHT22;3055;50.886;14.814;2023-02-15T12:39:05;4.50;99.90
6054;DHT22;3055;50.886;14.814;2023-02-15T12:41:32;4.60;99.90
6054;DHT22;3055;50.886;14.814;2023-02-15T12:44:04;4.60;99.90
6054;DHT22;3055;50.886;14.814;2023-02-15T12:46:32;4.60;99.90
6054;DHT22;3055;50.886;14.814;2023-02-15T12:49:19;4.60;99.90
6054;DHT22;3055;50.886;14.814;2023-02-15T12:51:49;4.60;99.90
6054;DHT22;3055;50.886;14.814;2023-02-15T12:54:24;4.60;99.90
6054;DHT22;3055;50.886;14.814;2023-02-15T12:56:52;4.50;99.90
6054;DHT22;3055;50.886;14.814;2023-02-15T12:59:20;4.50;99.90
6054;DHT22;3055;50.886;14.814;2023-02-15T13:01:47;4.50;99.90
6054;DHT22;3055;50.886;14.814;2023-02-15T13:04:21;4.60;99.90
6054;DHT22;3055;50.886;14.814;2023-02-15T13:06:52;4.60;99.90
6054;DHT22;3055;50.886;14.814;2023-02-15T13:09:24;4.50;99.90
6054;DHT22;3055;50.886;14.814;2023-02-15T13:11:56;4.50;99.90
6054;DHT22;3055;50.886;14.814;2023-02-15T13:14:28;4.50;99.90
6054;DHT22;3055;50.886;14.814;2023-02-15T13:16:58;4.50;99.90
6054;DHT22;3055;50.886;14.814;2023-02-15T13:19:31;4.50;99.90
6054;DHT22;3055;50.886;14.814;2023-02-15T13:22:02;4.50;99.90
6054;DHT22;3055;50.886;14.814;2023-02-15T13:24:35;4.50;99.90
6054;DHT22;3055;50.886;14.814;2023-02-15T13:27:03;4.60;99.90
6054;DHT22;3055;50.886;14.814;2023-02-15T13:29:34;4.80;99.90
6054;DHT22;3055;50.886;14.814;2023-02-15T13:32:07;4.90;99.90
6054;DHT22;3055;50.886;14.814;2023-02-15T13:34:39;4.90;93.90
6054;DHT22;3055;50.886;14.814;2023-02-15T13:37:13;5.10;99.90
6054;DHT22;3055;50.886;14.814;2023-02-15T13:39:44;5.20;27.20
6054;DHT22;3055;50.886;14.814;2023-02-15T13:42:19;5.20;1.00
6054;DHT22;3055;50.886;14.814;2023-02-15T13:44:58;5.20;1.00
6054;DHT22;3055;50.886;14.814;2023-02-15T13:47:34;5.30;1.00
6054;DHT22;3055;50.886;14.814;2023-02-15T13:50:16;5.30;1.00
6054;DHT22;3055;50.886;14.814;2023-02-15T13:52:54;5.30;1.00
6054;DHT22;3055;50.886;14.814;2023-02-15T13:55:36;5.50;1.00
6054;DHT22;3055;50.886;14.814;2023-02-15T14:01:10;5.80;1.00
6054;DHT22;3055;50.886;14.814;2023-02-15T14:03:56;5.90;1.00
6054;DHT22;3055;50.886;14.814;2023-02-15T14:06:47;5.90;99.90
6054;DHT22;3055;50.886;14.814;2023-02-15T14:09:24;6.00;99.90
6054;DHT22;3055;50.886;14.814;2023-02-15T14:12:04;6.00;99.90
6054;DHT22;3055;50.886;14.814;2023-02-15T14:14:51;5.80;99.90
6054;DHT22;3055;50.886;14.814;2023-02-15T14:17:24;5.80;99.90
6054;DHT22;3055;50.886;14.814;2023-02-15T14:19:55;5.70;99.90
6054;DHT22;3055;50.886;14.814;2023-02-15T14:22:30;5.60;99.90
6054;DHT22;3055;50.886;14.814;2023-02-15T14:25:16;5.50;99.90
6054;DHT22;3055;50.886;14.814;2023-02-15T14:27:52;5.60;99.90
6054;DHT22;3055;50.886;14.814;2023-02-15T14:30:24;5.60;99.90
6054;DHT22;3055;50.886;14.814;2023-02-15T14:32:54;5.40;99.90
6054;DHT22;3055;50.886;14.814;2023-02-15T14:35:25;5.10;99.90
6054;DHT22;3055;50.886;14.814;2023-02-15T14:37:58;4.90;99.90
6054;DHT22;3055;50.886;14.814;2023-02-15T14:40:36;4.80;1.00
6054;DHT22;3055;50.886;14.814;2023-02-15T14:43:30;4.70;1.00
6054;DHT22;3055;50.886;14.814;2023-02-15T14:46:03;4.70;1.00
6054;DHT22;3055;50.886;14.814;2023-02-15T14:48:40;4.60;1.00
6054;DHT22;3055;50.886;14.814;2023-02-15T14:51:09;4.40;1.00
6054;DHT22;3055;50.886;14.814;2023-02-15T14:53:37;4.30;1.00
6054;DHT22;3055;50.886;14.814;2023-02-15T14:56:21;4.20;1.00
6054;DHT22;3055;50.886;14.814;2023-02-15T14:58:56;4.20;1.00
6054;DHT22;3055;50.886;14.814;2023-02-15T15:01:26;4.20;1.00
6054;DHT22;3055;50.886;14.814;2023-02-15T15:03:55;4.20;1.00
6054;DHT22;3055;50.886;14.814;2023-02-15T15:06:26;4.30;1.00
6054;DHT22;3055;50.886;14.814;2023-02-15T15:08:57;4.40;1.00
6054;DHT22;3055;50.886;14.814;2023-02-15T15:11:44;4.40;1.00
6054;DHT22;3055;50.886;14.814;2023-02-15T15:14:38;4.30;1.00
6054;DHT22;3055;50.886;14.814;2023-02-15T15:17:08;4.20;1.00
6054;DHT22;3055;50.886;14.814;2023-02-15T15:20:01;4.20;1.00
6054;DHT22;3055;50.886;14.814;2023-02-15T15:22:30;4.20;1.00
6054;DHT22;3055;50.886;14.814;2023-02-15T15:24:58;4.30;1.00
6054;DHT22;3055;50.886;14.814;2023-02-15T15:27:48;4.30;1.00
6054;DHT22;3055;50.886;14.814;2023-02-15T15:33:53;4.20;1.00
6054;DHT22;3055;50.886;14.814;2023-02-15T15:36:52;4.00;1.00
6054;DHT22;3055;50.886;14.814;2023-02-15T15:39:56;3.80;1.00
6054;DHT22;3055;50.886;14.814;2023-02-15T15:42:32;3.70;1.00
6054;DHT22;3055;50.886;14.814;2023-02-15T15:45:32;3.50;99.90
6054;DHT22;3055;50.886;14.814;2023-02-15T15:51:09;2.90;99.90
6054;DHT22;3055;50.886;14.814;2023-02-15T15:53:40;2.70;1.00
6054;DHT22;3055;50.886;14.814;2023-02-15T15:56:14;2.60;99.90
6054;DHT22;3055;50.886;14.814;2023-02-15T15:58:48;2.50;1.00
6054;DHT22;3055;50.886;14.814;2023-02-15T16:01:24;2.40;1.00
6054;DHT22;3055;50.886;14.814;2023-02-15T16:03:54;2.30;41.20
6054;DHT22;3055;50.886;14.814;2023-02-15T16:06:33;2.20;99.90
6054;DHT22;3055;50.886;14.814;2023-02-15T16:09:11;2.10;99.90
6054;DHT22;3055;50.886;14.814;2023-02-15T16:11:39;2.00;1.00
6054;DHT22;3055;50.886;14.814;2023-02-15T16:14:15;2.00;1.00
6054;DHT22;3055;50.886;14.814;2023-02-15T16:16:49;1.90;1.00
6054;DHT22;3055;50.886;14.814;2023-02-15T16:19:23;1.90;1.00
6054;DHT22;3055;50.886;14.814;2023-02-15T16:21:51;1.80;1.00
6054;DHT22;3055;50.886;14.814;2023-02-15T16:24:26;1.80;1.00
6054;DHT22;3055;50.886;14.814;2023-02-15T16:29:52;1.70;1.00
6054;DHT22;3055;50.886;14.814;2023-02-15T16:32:22;1.70;1.00
6054;DHT22;3055;50.886;14.814;2023-02-15T16:34:54;1.70;1.00
6054;DHT22;3055;50.886;14.814;2023-02-15T16:37:23;1.70;1.00
6054;DHT22;3055;50.886;14.814;2023-02-15T16:39:53;1.60;1.00
6054;DHT22;3055;50.886;14.814;2023-02-15T16:42:21;1.60;1.00
6054;DHT22;3055;50.886;14.814;2023-02-15T16:44:51;1.60;1.00
6054;DHT22;3055;50.886;14.814;2023-02-15T16:47:25;1.60;1.00
6054;DHT22;3055;50.886;14.814;2023-02-15T16:49:59;1.60;1.00
6054;DHT22;3055;50.886;14.814;2023-02-15T16:52:28;1.50;1.00
6054;DHT22;3055;50.886;14.814;2023-02-15T16:54:57;1.50;1.00
6054;DHT22;3055;50.886;14.814;2023-02-15T16:57:28;1.50;1.00
6054;DHT22;3055;50.886;14.814;2023-02-15T17:00:00;1.50;1.00
6054;DHT22;3055;50.886;14.814;2023-02-15T17:02:32;1.50;1.00
6054;DHT22;3055;50.886;14.814;2023-02-15T17:05:15;1.40;1.00